sensor_id;sensor_type;location;lat;lon;timestamp;temperature;humidity
31575;DHT22;18182;1.328;103.810;2023-05-10T00:01:39;30.40;99.90
31575;DHT22;18182;1.328;103.810;2023-05-10T00:04:07;30.40;99.90
31575;DHT22;18182;1.328;103.810;2023-05-10T00:06:33;30.30;99.90
31575;DHT22;18182;1.328;103.810;2023-05-10T00:08:59;30.40;99.90
31575;DHT22;18182;1.328;103.810;2023-05-10T00:11:25;30.40;99.90
31575;DHT22;18182;1.328;103.810;2023-05-10T00:13:51;30.50;99.90
31575;DHT22;18182;1.328;103.810;2023-05-10T00:16:17;30.60;99.90
31575;DHT22;18182;1.328;103.810;2023-05-10T00:18:44;30.60;99.90
31575;DHT22;18182;1.328;103.810;2023-05-10T00:21:10;30.70;99.90
31575;DHT22;18182;1.328;103.810;2023-05-10T00:23:36;30.60;99.90
31575;DHT22;18182;1.328;103.810;2023-05-10T00:26:02;30.60;99.90
31575;DHT22;18182;1.328;103.810;2023-05-10T00:28:29;30.60;99.90
31575;DHT22;18182;1.328;103.810;2023-05-10T00:30:55;30.50;99.90
31575;DHT22;18182;1.328;103.810;2023-05-10T00:33:21;30.50;99.90
31575;DHT22;18182;1.328;103.810;2023-05-10T00:35:47;30.50;99.90
31575;DHT22;18182;1.328;103.810;2023-05-10T00:38:13;30.50;99.90
31575;DHT22;18182;1.328;103.810;2023-05-10T00:40:40;30.50;99.90
31575;DHT22;18182;1.328;103.810;2023-05-10T00:43:06;30.50;99.90
31575;DHT22;18182;1.328;103.810;2023-05-10T00:45:32;30.50;99.90
31575;DHT22;18182;1.328;103.810;2023-05-10T00:48:00;30.50;99.90
31575;DHT22;18182;1.328;103.810;2023-05-10T00:50:27;30.40;99.90
31575;DHT22;18182;1.328;103.810;2023-05-10T00:52:54;30.40;99.90
31575;DHT22;18182;1.328;103.810;2023-05-10T00:55:20;30.30;99.90
31575;DHT22;18182;1.328;103.810;2023-05-10T00:57:47;30.30;99.90
31575;DHT22;18182;1.328;103.810;2023-05-10T01:00:13;30.50;99.90
31575;DHT22;18182;1.328;103.810;2023-05-10T01:02:46;30.50;99.90
31575;DHT22;18182;1.328;103.810;2023-05-10T01:05:13;30.50;99.90
31575;DHT22;18182;1.328;103.810;2023-05-10T01:07:39;30.50;99.90
31575;DHT22;18182;1.328;103.810;2023-05-10T01:10:06;30.50;99.90
31575;DHT22;18182;1.328;103.810;2023-05-10T01:12:37;30.40;99.90
31575;DHT22;18182;1.328;103.810;2023-05-10T01:15:04;30.40;99.90
31575;DHT22;18182;1.328;103.810;2023-05-10T01:17:31;30.40;99.90
31575;DHT22;18182;1.328;103.810;2023-05-10T01:19:58;30.30;99.90
31575;DHT22;18182;1.328;103.810;2023-05-10T01:32:57;30.50;99.90
31575;DHT22;18182;1.328;103.810;2023-05-10T01:40:40;30.50;99.90
31575;DHT22;18182;1.328;103.810;2023-05-10T01:43:11;30.60;99.90
31575;DHT22;18182;1.328;103.810;2023-05-10T01:48:21;30.60;99.90
31575;DHT22;18182;1.328;103.810;2023-05-10T01:50:48;30.70;99.90
31575;DHT22;18182;1.328;103.810;2023-05-10T01:53:17;30.70;99.90
31575;DHT22;18182;1.328;103.810;2023-05-10T01:55:48;30.70;99.90
31575;DHT22;18182;1.328;103.810;2023-05-10T01:58:22;30.80;99.90
31575;DHT22;18182;1.328;103.810;2023-05-10T02:00:50;30.80;99.90
31575;DHT22;18182;1.328;103.810;2023-05-10T02:03:18;30.80;99.90
31575;DHT22;18182;1.328;103.810;2023-05-10T02:05:46;30.90;99.90
31575;DHT22;18182;1.328;103.810;2023-05-10T02:08:14;30.90;99.90
31575;DHT22;18182;1.328;103.810;2023-05-10T02:10:41;30.90;99.90
31575;DHT22;18182;1.328;103.810;2023-05-10T02:13:08;30.90;99.90
31575;DHT22;18182;1.328;103.810;2023-05-10T02:15:36;30.90;99.90
31575;DHT22;18182;1.328;103.810;2023-05-10T02:18:02;31.00;99.90
31575;DHT22;18182;1.328;103.810;2023-05-10T02:20:31;31.10;99.90
31575;DHT22;18182;1.328;103.810;2023-05-10T02:22:57;31.20;99.90
31575;DHT22;18182;1.328;103.810;2023-05-10T02:25:24;31.30;99.90
31575;DHT22;18182;1.328;103.810;2023-05-10T02:27:51;31.30;99.90
31575;DHT22;18182;1.328;103.810;2023-05-10T02:30:18;31.30;99.90
31575;DHT22;18182;1.328;103.810;2023-05-10T02:32:45;31.30;99.90
31575;DHT22;18182;1.328;103.810;2023-05-10T02:35:13;31.50;99.90
31575;DHT22;18182;1.328;103.810;2023-05-10T02:37:39;31.50;99.90
31575;DHT22;18182;1.328;103.810;2023-05-10T02:40:05;31.70;99.90
31575;DHT22;18182;1.328;103.810;2023-05-10T02:42:37;31.60;99.90
31575;DHT22;18182;1.328;103.810;2023-05-10T02:45:05;31.60;99.90
31575;DHT22;18182;1.328;103.810;2023-05-10T02:47:33;31.60;99.90
31575;DHT22;18182;1.328;103.810;2023-05-10T02:49:59;31.70;99.90
31575;DHT22;18182;1.328;103.810;2023-05-10T02:52:27;31.70;99.90
31575;DHT22;18182;1.328;103.810;2023-05-10T02:54:58;31.80;99.90
31575;DHT22;18182;1.328;103.810;2023-05-10T02:57:33;31.70;99.90
31575;DHT22;18182;1.328;103.810;2023-05-10T03:00:00;31.70;99.90
31575;DHT22;18182;1.328;103.810;2023-05-10T03:02:27;31.70;99.90
31575;DHT22;18182;1.328;103.810;2023-05-10T03:04:56;31.60;99.90
31575;DHT22;18182;1.328;103.810;2023-05-10T03:07:22;31.50;99.90
31575;DHT22;18182;1.328;103.810;2023-05-10T03:09:48;31.40;99.90
31575;DHT22;18182;1.328;103.810;2023-05-10T03:12:18;31.40;99.90
31575;DHT22;18182;1.328;103.810;2023-05-10T03:17:35;31.50;99.90
31575;DHT22;18182;1.328;103.810;2023-05-10T03:20:12;31.50;99.90
31575;DHT22;18182;1.328;103.810;2023-05-10T03:23:24;31.50;99.90
31575;DHT22;18182;1.328;103.810;2023-05-10T03:25:29;31.60;99.90
31575;DHT22;18182;1.328;103.810;2023-05-10T03:27:56;31.70;99.90
31575;DHT22;18182;1.328;103.810;2023-05-10T03:30:23;31.70;99.90
31575;DHT22;18182;1.328;103.810;2023-05-10T03:32:50;31.70;99.90
31575;DHT22;18182;1.328;103.810;2023-05-10T03:35:16;31.70;99.90
31575;DHT22;18182;1.328;103.810;2023-05-10T03:37:42;31.60;99.90
31575;DHT22;18182;1.328;103.810;2023-05-10T03:40:08;31.60;99.90
31575;DHT22;18182;1.328;103.810;2023-05-10T03:42:34;31.50;99.90
31575;DHT22;18182;1.328;103.810;2023-05-10T03:45:01;31.60;99.90
31575;DHT22;18182;1.328;103.810;2023-05-10T03:47:27;31.50;99.90
31575;DHT22;18182;1.328;103.810;2023-05-10T03:49:53;31.50;99.90
31575;DHT22;18182;1.328;103.810;2023-05-10T03:52:19;31.50;99.90
31575;DHT22;18182;1.328;103.810;2023-05-10T03:54:45;31.70;99.90
31575;DHT22;18182;1.328;103.810;2023-05-10T03:57:11;31.70;99.90
31575;DHT22;18182;1.328;103.810;2023-05-10T03:59:38;31.80;99.90
31575;DHT22;18182;1.328;103.810;2023-05-10T04:02:04;31.90;99.90
31575;DHT22;18182;1.328;103.810;2023-05-10T04:04:30;32.10;99.90
31575;DHT22;18182;1.328;103.810;2023-05-10T04:06:56;32.10;99.90
31575;DHT22;18182;1.328;103.810;2023-05-10T04:09:22;32.30;99.90
31575;DHT22;18182;1.328;103.810;2023-05-10T04:11:49;32.40;99.90
31575;DHT22;18182;1.328;103.810;2023-05-10T04:14:15;32.50;99.90
31575;DHT22;18182;1.328;103.810;2023-05-10T04:16:42;32.50;99.90
31575;DHT22;18182;1.328;103.810;2023-05-10T04:19:08;32.60;99.90
31575;DHT22;18182;1.328;103.810;2023-05-10T04:21:34;32.80;99.90
31575;DHT22;18182;1.328;103.810;2023-05-10T04:24:00;32.80;99.90
31575;DHT22;18182;1.328;103.810;2023-05-10T04:26:26;32.80;99.90
31575;DHT22;18182;1.328;103.810;2023-05-10T04:28:53;32.70;99.90
31575;DHT22;18182;1.328;103.810;2023-05-10T04:31:19;32.80;99.90
31575;DHT22;18182;1.328;103.810;2023-05-10T04:33:45;32.70;99.90
31575;DHT22;18182;1.328;103.810;2023-05-10T04:36:11;32.60;99.90
31575;DHT22;18182;1.328;103.810;2023-05-10T04:38:37;32.50;99.90
31575;DHT22;18182;1.328;103.810;2023-05-10T04:41:04;32.50;99.90
31575;DHT22;18182;1.328;103.810;2023-05-10T04:43:31;32.60;99.90
31575;DHT22;18182;1.328;103.810;2023-05-10T04:45:57;32.60;99.90
31575;DHT22;18182;1.328;103.810;2023-05-10T04:48:23;32.60;99.90
31575;DHT22;18182;1.328;103.810;2023-05-10T04:50:49;32.60;99.90
31575;DHT22;18182;1.328;103.810;2023-05-10T04:53:15;32.60;99.90
31575;DHT22;18182;1.328;103.810;2023-05-10T04:55:41;32.70;99.90
31575;DHT22;18182;1.328;103.810;2023-05-10T04:58:08;32.70;99.90
31575;DHT22;18182;1.328;103.810;2023-05-10T05:00:34;32.70;99.90
31575;DHT22;18182;1.328;103.810;2023-05-10T05:03:00;32.70;99.90
31575;DHT22;18182;1.328;103.810;2023-05-10T05:05:26;32.70;99.90
31575;DHT22;18182;1.328;103.810;2023-05-10T05:07:52;32.70;99.90
31575;DHT22;18182;1.328;103.810;2023-05-10T05:10:19;32.60;99.90
31575;DHT22;18182;1.328;103.810;2023-05-10T05:12:45;32.60;99.90
31575;DHT22;18182;1.328;103.810;2023-05-10T05:15:11;32.60;99.90
31575;DHT22;18182;1.328;103.810;2023-05-10T05:17:37;32.70;99.90
31575;DHT22;18182;1.328;103.810;2023-05-10T05:20:04;32.80;99.90
31575;DHT22;18182;1.328;103.810;2023-05-10T05:22:30;32.80;99.90
31575;DHT22;18182;1.328;103.810;2023-05-10T05:24:56;32.70;99.90
31575;DHT22;18182;1.328;103.810;2023-05-10T05:27:24;32.70;99.90
31575;DHT22;18182;1.328;103.810;2023-05-10T05:29:58;32.70;99.90
31575;DHT22;18182;1.328;103.810;2023-05-10T05:32:24;32.70;99.90
31575;DHT22;18182;1.328;103.810;2023-05-10T05:34:50;32.70;99.90
31575;DHT22;18182;1.328;103.810;2023-05-10T05:37:17;32.70;99.90
31575;DHT22;18182;1.328;103.810;2023-05-10T05:39:44;32.80;99.90
31575;DHT22;18182;1.328;103.810;2023-05-10T05:42:10;32.90;99.90
31575;DHT22;18182;1.328;103.810;2023-05-10T05:44:37;32.90;99.90
31575;DHT22;18182;1.328;103.810;2023-05-10T05:47:03;33.00;99.90
31575;DHT22;18182;1.328;103.810;2023-05-10T05:49:29;33.10;99.90
31575;DHT22;18182;1.328;103.810;2023-05-10T05:52:02;33.10;99.90
31575;DHT22;18182;1.328;103.810;2023-05-10T05:54:28;33.00;99.90
31575;DHT22;18182;1.328;103.810;2023-05-10T05:56:55;32.70;99.90
31575;DHT22;18182;1.328;103.810;2023-05-10T05:59:22;32.60;99.90
31575;DHT22;18182;1.328;103.810;2023-05-10T06:01:48;32.80;99.90
31575;DHT22;18182;1.328;103.810;2023-05-10T06:04:15;32.90;99.90
31575;DHT22;18182;1.328;103.810;2023-05-10T06:06:41;33.00;99.90
31575;DHT22;18182;1.328;103.810;2023-05-10T06:09:08;33.20;99.90
31575;DHT22;18182;1.328;103.810;2023-05-10T06:11:34;33.40;99.90
31575;DHT22;18182;1.328;103.810;2023-05-10T06:14:00;33.50;99.90
31575;DHT22;18182;1.328;103.810;2023-05-10T06:16:27;33.50;99.90
31575;DHT22;18182;1.328;103.810;2023-05-10T06:18:53;33.70;99.90
31575;DHT22;18182;1.328;103.810;2023-05-10T06:21:19;33.80;99.90
31575;DHT22;18182;1.328;103.810;2023-05-10T06:23:45;33.90;99.90
31575;DHT22;18182;1.328;103.810;2023-05-10T06:26:12;33.90;99.90
31575;DHT22;18182;1.328;103.810;2023-05-10T06:28:39;33.90;99.90
31575;DHT22;18182;1.328;103.810;2023-05-10T06:31:06;33.80;99.00
31575;DHT22;18182;1.328;103.810;2023-05-10T06:33:32;33.60;99.90
31575;DHT22;18182;1.328;103.810;2023-05-10T06:35:59;33.70;99.90
31575;DHT22;18182;1.328;103.810;2023-05-10T06:38:25;33.60;99.90
31575;DHT22;18182;1.328;103.810;2023-05-10T06:40:51;33.60;99.40
31575;DHT22;18182;1.328;103.810;2023-05-10T06:43:17;33.60;99.90
31575;DHT22;18182;1.328;103.810;2023-05-10T06:45:43;33.40;99.90
31575;DHT22;18182;1.328;103.810;2023-05-10T06:48:09;33.40;99.90
31575;DHT22;18182;1.328;103.810;2023-05-10T06:50:36;33.30;99.50
31575;DHT22;18182;1.328;103.810;2023-05-10T06:53:02;33.20;99.90
31575;DHT22;18182;1.328;103.810;2023-05-10T06:55:28;33.30;99.90
31575;DHT22;18182;1.328;103.810;2023-05-10T06:57:54;33.40;99.90
31575;DHT22;18182;1.328;103.810;2023-05-10T07:00:21;33.40;99.90
31575;DHT22;18182;1.328;103.810;2023-05-10T07:02:47;33.40;99.90
31575;DHT22;18182;1.328;103.810;2023-05-10T07:05:14;33.50;99.90
31575;DHT22;18182;1.328;103.810;2023-05-10T07:07:40;33.50;99.20
31575;DHT22;18182;1.328;103.810;2023-05-10T07:10:06;33.20;99.70
31575;DHT22;18182;1.328;103.810;2023-05-10T07:12:33;32.90;99.90
31575;DHT22;18182;1.328;103.810;2023-05-10T07:14:59;33.00;99.90
31575;DHT22;18182;1.328;103.810;2023-05-10T07:17:25;33.10;99.90
31575;DHT22;18182;1.328;103.810;2023-05-10T07:19:52;33.30;99.90
31575;DHT22;18182;1.328;103.810;2023-05-10T07:22:18;33.40;99.90
31575;DHT22;18182;1.328;103.810;2023-05-10T07:24:44;33.40;99.90
31575;DHT22;18182;1.328;103.810;2023-05-10T07:27:11;33.40;99.90
31575;DHT22;18182;1.328;103.810;2023-05-10T07:29:38;33.40;99.90
31575;DHT22;18182;1.328;103.810;2023-05-10T07:32:04;33.40;99.90
31575;DHT22;18182;1.328;103.810;2023-05-10T07:34:31;33.30;99.90
31575;DHT22;18182;1.328;103.810;2023-05-10T07:37:00;33.20;99.90
31575;DHT22;18182;1.328;103.810;2023-05-10T07:39:27;33.20;99.90
31575;DHT22;18182;1.328;103.810;2023-05-10T07:41:53;33.20;99.90
31575;DHT22;18182;1.328;103.810;2023-05-10T07:44:20;33.30;99.90
31575;DHT22;18182;1.328;103.810;2023-05-10T07:46:46;33.40;99.90
31575;DHT22;18182;1.328;103.810;2023-05-10T07:49:13;33.40;99.90
31575;DHT22;18182;1.328;103.810;2023-05-10T07:51:39;33.40;99.90
31575;DHT22;18182;1.328;103.810;2023-05-10T07:54:05;33.50;99.90
31575;DHT22;18182;1.328;103.810;2023-05-10T07:56:31;33.50;99.80
31575;DHT22;18182;1.328;103.810;2023-05-10T07:58:58;33.50;99.90
31575;DHT22;18182;1.328;103.810;2023-05-10T08:01:25;33.50;99.90
31575;DHT22;18182;1.328;103.810;2023-05-10T08:03:52;33.50;99.90
31575;DHT22;18182;1.328;103.810;2023-05-10T08:06:19;33.50;99.90
31575;DHT22;18182;1.328;103.810;2023-05-10T08:08:46;33.40;99.90
31575;DHT22;18182;1.328;103.810;2023-05-10T08:11:17;33.50;99.90
31575;DHT22;18182;1.328;103.810;2023-05-10T08:13:44;33.50;99.90
31575;DHT22;18182;1.328;103.810;2023-05-10T08:16:10;33.40;99.90
31575;DHT22;18182;1.328;103.810;2023-05-10T08:18:37;33.30;99.90
31575;DHT22;18182;1.328;103.810;2023-05-10T08:21:03;33.40;99.90
31575;DHT22;18182;1.328;103.810;2023-05-10T08:23:29;33.30;99.90
31575;DHT22;18182;1.328;103.810;2023-05-10T08:25:56;33.30;99.90
31575;DHT22;18182;1.328;103.810;2023-05-10T08:28:22;33.30;99.90
31575;DHT22;18182;1.328;103.810;2023-05-10T08:30:49;33.20;99.90
31575;DHT22;18182;1.328;103.810;2023-05-10T08:33:17;33.20;99.90
31575;DHT22;18182;1.328;103.810;2023-05-10T08:35:43;33.10;99.90
31575;DHT22;18182;1.328;103.810;2023-05-10T08:38:09;33.10;99.90
31575;DHT22;18182;1.328;103.810;2023-05-10T08:40:42;33.10;99.90
31575;DHT22;18182;1.328;103.810;2023-05-10T08:43:10;33.10;99.90
31575;DHT22;18182;1.328;103.810;2023-05-10T08:45:40;33.10;99.90
31575;DHT22;18182;1.328;103.810;2023-05-10T08:48:06;33.10;99.90
31575;DHT22;18182;1.328;103.810;2023-05-10T08:50:36;33.10;99.90
31575;DHT22;18182;1.328;103.810;2023-05-10T08:53:09;33.10;99.90
31575;DHT22;18182;1.328;103.810;2023-05-10T08:55:36;33.10;99.90
31575;DHT22;18182;1.328;103.810;2023-05-10T08:58:06;33.10;99.90
31575;DHT22;18182;1.328;103.810;2023-05-10T09:00:32;33.00;99.90
31575;DHT22;18182;1.328;103.810;2023-05-10T09:02:59;33.00;99.90
31575;DHT22;18182;1.328;103.810;2023-05-10T09:05:26;33.00;99.90
31575;DHT22;18182;1.328;103.810;2023-05-10T09:07:53;33.00;99.90
31575;DHT22;18182;1.328;103.810;2023-05-10T09:10:19;33.00;99.90
31575;DHT22;18182;1.328;103.810;2023-05-10T09:12:45;33.00;99.90
31575;DHT22;18182;1.328;103.810;2023-05-10T09:15:13;33.00;99.90
31575;DHT22;18182;1.328;103.810;2023-05-10T09:17:40;33.00;99.90
31575;DHT22;18182;1.328;103.810;2023-05-10T09:20:07;33.00;99.90
31575;DHT22;18182;1.328;103.810;2023-05-10T09:22:33;33.00;99.90
31575;DHT22;18182;1.328;103.810;2023-05-10T09:25:15;32.90;99.90
31575;DHT22;18182;1.328;103.810;2023-05-10T09:27:44;32.90;99.90
31575;DHT22;18182;1.328;103.810;2023-05-10T09:30:11;33.00;99.90
31575;DHT22;18182;1.328;103.810;2023-05-10T09:32:43;33.00;99.90
31575;DHT22;18182;1.328;103.810;2023-05-10T09:35:09;33.00;99.90
31575;DHT22;18182;1.328;103.810;2023-05-10T09:37:36;33.00;99.90
31575;DHT22;18182;1.328;103.810;2023-05-10T09:40:05;33.00;99.90
31575;DHT22;18182;1.328;103.810;2023-05-10T09:42:33;33.00;99.90
31575;DHT22;18182;1.328;103.810;2023-05-10T09:45:03;33.00;99.90
31575;DHT22;18182;1.328;103.810;2023-05-10T09:47:31;33.00;99.90
31575;DHT22;18182;1.328;103.810;2023-05-10T09:49:57;33.00;99.90
31575;DHT22;18182;1.328;103.810;2023-05-10T09:52:28;33.00;99.90
31575;DHT22;18182;1.328;103.810;2023-05-10T09:54:55;32.90;99.90
31575;DHT22;18182;1.328;103.810;2023-05-10T09:57:21;33.00;99.90
31575;DHT22;18182;1.328;103.810;2023-05-10T09:59:48;32.90;99.90
31575;DHT22;18182;1.328;103.810;2023-05-10T10:02:15;32.90;99.90
31575;DHT22;18182;1.328;103.810;2023-05-10T10:04:42;32.90;99.90
31575;DHT22;18182;1.328;103.810;2023-05-10T10:07:08;32.90;99.90
31575;DHT22;18182;1.328;103.810;2023-05-10T10:09:35;32.90;99.90
31575;DHT22;18182;1.328;103.810;2023-05-10T10:12:01;32.90;99.90
31575;DHT22;18182;1.328;103.810;2023-05-10T10:14:31;32.80;99.90
31575;DHT22;18182;1.328;103.810;2023-05-10T10:16:57;32.60;99.90
31575;DHT22;18182;1.328;103.810;2023-05-10T10:19:26;32.60;99.90
31575;DHT22;18182;1.328;103.810;2023-05-10T10:21:52;32.50;99.90
31575;DHT22;18182;1.328;103.810;2023-05-10T10:24:18;32.40;99.90
31575;DHT22;18182;1.328;103.810;2023-05-10T10:26:44;32.40;99.90
31575;DHT22;18182;1.328;103.810;2023-05-10T10:29:17;32.40;99.90
31575;DHT22;18182;1.328;103.810;2023-05-10T10:31:46;32.40;99.90
31575;DHT22;18182;1.328;103.810;2023-05-10T10:34:31;32.30;99.90
31575;DHT22;18182;1.328;103.810;2023-05-10T10:36:57;32.20;99.90
31575;DHT22;18182;1.328;103.810;2023-05-10T10:39:29;32.10;99.90
31575;DHT22;18182;1.328;103.810;2023-05-10T10:41:57;32.10;99.90
31575;DHT22;18182;1.328;103.810;2023-05-10T10:49:28;31.90;99.90
31575;DHT22;18182;1.328;103.810;2023-05-10T10:54:46;31.80;99.90
31575;DHT22;18182;1.328;103.810;2023-05-10T10:57:13;31.90;99.90
31575;DHT22;18182;1.328;103.810;2023-05-10T10:59:42;31.90;99.90
31575;DHT22;18182;1.328;103.810;2023-05-10T11:07:53;31.80;99.90
31575;DHT22;18182;1.328;103.810;2023-05-10T11:10:23;31.80;99.90
31575;DHT22;18182;1.328;103.810;2023-05-10T11:15:19;31.70;99.90
31575;DHT22;18182;1.328;103.810;2023-05-10T11:17:47;31.70;99.90
31575;DHT22;18182;1.328;103.810;2023-05-10T11:20:17;31.70;99.90
31575;DHT22;18182;1.328;103.810;2023-05-10T11:22:52;31.60;99.90
31575;DHT22;18182;1.328;103.810;2023-05-10T11:25:18;31.50;99.90
31575;DHT22;18182;1.328;103.810;2023-05-10T11:27:47;31.50;99.90
31575;DHT22;18182;1.328;103.810;2023-05-10T11:30:13;31.50;99.90
31575;DHT22;18182;1.328;103.810;2023-05-10T11:32:40;31.50;99.90
31575;DHT22;18182;1.328;103.810;2023-05-10T11:35:07;31.50;99.90
31575;DHT22;18182;1.328;103.810;2023-05-10T11:37:33;31.50;99.90
31575;DHT22;18182;1.328;103.810;2023-05-10T11:40:00;31.50;99.90
31575;DHT22;18182;1.328;103.810;2023-05-10T11:42:29;31.60;99.90
31575;DHT22;18182;1.328;103.810;2023-05-10T11:44:55;31.60;99.90
31575;DHT22;18182;1.328;103.810;2023-05-10T11:47:22;31.60;99.90
31575;DHT22;18182;1.328;103.810;2023-05-10T11:49:48;31.60;99.90
31575;DHT22;18182;1.328;103.810;2023-05-10T11:52:14;31.50;99.90
31575;DHT22;18182;1.328;103.810;2023-05-10T11:54:53;31.50;99.90
31575;DHT22;18182;1.328;103.810;2023-05-10T11:57:19;31.60;99.90
31575;DHT22;18182;1.328;103.810;2023-05-10T11:59:46;31.50;99.90
31575;DHT22;18182;1.328;103.810;2023-05-10T12:02:13;31.60;99.90
31575;DHT22;18182;1.328;103.810;2023-05-10T12:04:39;31.60;99.90
31575;DHT22;18182;1.328;103.810;2023-05-10T12:07:05;31.60;99.90
31575;DHT22;18182;1.328;103.810;2023-05-10T12:09:32;31.60;99.90
31575;DHT22;18182;1.328;103.810;2023-05-10T12:11:58;31.70;99.90
31575;DHT22;18182;1.328;103.810;2023-05-10T12:14:24;31.70;99.90
31575;DHT22;18182;1.328;103.810;2023-05-10T12:16:50;31.70;99.90
31575;DHT22;18182;1.328;103.810;2023-05-10T12:19:18;31.70;99.90
31575;DHT22;18182;1.328;103.810;2023-05-10T12:21:48;31.70;99.90
31575;DHT22;18182;1.328;103.810;2023-05-10T12:24:14;31.60;99.90
31575;DHT22;18182;1.328;103.810;2023-05-10T12:26:44;31.60;99.90
31575;DHT22;18182;1.328;103.810;2023-05-10T12:31:53;31.60;99.90
31575;DHT22;18182;1.328;103.810;2023-05-10T12:34:35;31.50;99.90
31575;DHT22;18182;1.328;103.810;2023-05-10T12:37:03;31.60;99.90
31575;DHT22;18182;1.328;103.810;2023-05-10T12:39:39;31.50;99.90
31575;DHT22;18182;1.328;103.810;2023-05-10T12:42:05;31.50;99.90
31575;DHT22;18182;1.328;103.810;2023-05-10T12:44:31;31.50;99.90
31575;DHT22;18182;1.328;103.810;2023-05-10T12:46:58;31.50;99.90
31575;DHT22;18182;1.328;103.810;2023-05-10T12:49:24;31.40;99.90
31575;DHT22;18182;1.328;103.810;2023-05-10T12:51:50;31.50;99.90
31575;DHT22;18182;1.328;103.810;2023-05-10T12:54:16;31.50;99.90
31575;DHT22;18182;1.328;103.810;2023-05-10T12:56:42;31.50;99.90
31575;DHT22;18182;1.328;103.810;2023-05-10T12:59:09;31.50;99.90
31575;DHT22;18182;1.328;103.810;2023-05-10T13:01:35;31.50;99.90
31575;DHT22;18182;1.328;103.810;2023-05-10T13:04:01;31.50;99.90
31575;DHT22;18182;1.328;103.810;2023-05-10T13:06:27;31.50;99.90
31575;DHT22;18182;1.328;103.810;2023-05-10T13:08:53;31.40;99.90
31575;DHT22;18182;1.328;103.810;2023-05-10T13:11:19;31.40;99.90
31575;DHT22;18182;1.328;103.810;2023-05-10T13:13:47;31.40;99.90
31575;DHT22;18182;1.328;103.810;2023-05-10T13:16:13;31.30;99.90
31575;DHT22;18182;1.328;103.810;2023-05-10T13:18:39;31.30;99.90
31575;DHT22;18182;1.328;103.810;2023-05-10T13:21:05;31.30;99.90
31575;DHT22;18182;1.328;103.810;2023-05-10T13:23:31;31.30;99.90
31575;DHT22;18182;1.328;103.810;2023-05-10T13:25:57;31.30;99.90
31575;DHT22;18182;1.328;103.810;2023-05-10T13:28:23;31.30;99.90
31575;DHT22;18182;1.328;103.810;2023-05-10T13:30:51;31.30;99.90
31575;DHT22;18182;1.328;103.810;2023-05-10T13:33:17;31.30;99.90
31575;DHT22;18182;1.328;103.810;2023-05-10T13:35:44;31.30;99.90
31575;DHT22;18182;1.328;103.810;2023-05-10T13:38:11;31.30;99.90
31575;DHT22;18182;1.328;103.810;2023-05-10T13:40:37;31.30;99.90
31575;DHT22;18182;1.328;103.810;2023-05-10T13:43:03;31.30;99.90
31575;DHT22;18182;1.328;103.810;2023-05-10T13:45:30;31.30;99.90
31575;DHT22;18182;1.328;103.810;2023-05-10T13:47:56;31.30;99.90
31575;DHT22;18182;1.328;103.810;2023-05-10T13:50:22;31.20;99.90
31575;DHT22;18182;1.328;103.810;2023-05-10T13:52:48;31.30;99.90
31575;DHT22;18182;1.328;103.810;2023-05-10T13:55:15;31.30;99.90
31575;DHT22;18182;1.328;103.810;2023-05-10T13:57:41;31.20;99.90
31575;DHT22;18182;1.328;103.810;2023-05-10T14:00:08;31.20;99.90
31575;DHT22;18182;1.328;103.810;2023-05-10T14:02:35;31.20;99.90
31575;DHT22;18182;1.328;103.810;2023-05-10T14:05:01;31.20;99.90
31575;DHT22;18182;1.328;103.810;2023-05-10T14:07:27;31.20;99.90
31575;DHT22;18182;1.328;103.810;2023-05-10T14:09:53;31.10;99.90
31575;DHT22;18182;1.328;103.810;2023-05-10T14:12:20;31.10;99.90
31575;DHT22;18182;1.328;103.810;2023-05-10T14:14:46;31.10;99.90
31575;DHT22;18182;1.328;103.810;2023-05-10T14:17:12;31.10;99.90
31575;DHT22;18182;1.328;103.810;2023-05-10T14:19:38;31.10;99.90
31575;DHT22;18182;1.328;103.810;2023-05-10T14:22:04;31.10;99.90
31575;DHT22;18182;1.328;103.810;2023-05-10T14:24:31;31.10;99.90
31575;DHT22;18182;1.328;103.810;2023-05-10T14:26:57;31.10;99.90
31575;DHT22;18182;1.328;103.810;2023-05-10T14:29:23;31.10;99.90
31575;DHT22;18182;1.328;103.810;2023-05-10T14:31:49;31.20;99.90
31575;DHT22;18182;1.328;103.810;2023-05-10T14:34:15;31.20;99.90
31575;DHT22;18182;1.328;103.810;2023-05-10T14:36:41;31.10;99.90
31575;DHT22;18182;1.328;103.810;2023-05-10T14:39:07;31.10;99.90
31575;DHT22;18182;1.328;103.810;2023-05-10T14:41:35;31.10;99.90
31575;DHT22;18182;1.328;103.810;2023-05-10T14:44:01;31.10;99.90
31575;DHT22;18182;1.328;103.810;2023-05-10T14:46:30;31.10;99.90
31575;DHT22;18182;1.328;103.810;2023-05-10T14:48:56;31.10;99.90
31575;DHT22;18182;1.328;103.810;2023-05-10T14:51:22;31.10;99.90
31575;DHT22;18182;1.328;103.810;2023-05-10T14:53:49;31.10;99.90
31575;DHT22;18182;1.328;103.810;2023-05-10T14:56:15;31.10;99.90
31575;DHT22;18182;1.328;103.810;2023-05-10T14:58:41;31.10;99.90
31575;DHT22;18182;1.328;103.810;2023-05-10T15:01:08;31.10;99.90
31575;DHT22;18182;1.328;103.810;2023-05-10T15:03:35;31.00;99.90
31575;DHT22;18182;1.328;103.810;2023-05-10T15:06:01;31.00;99.90
31575;DHT22;18182;1.328;103.810;2023-05-10T15:08:27;31.00;99.90
31575;DHT22;18182;1.328;103.810;2023-05-10T15:10:54;31.00;99.90
31575;DHT22;18182;1.328;103.810;2023-05-10T15:13:21;31.00;99.90
31575;DHT22;18182;1.328;103.810;2023-05-10T15:15:47;31.00;99.90
31575;DHT22;18182;1.328;103.810;2023-05-10T15:18:13;31.00;99.90
31575;DHT22;18182;1.328;103.810;2023-05-10T15:20:40;31.00;99.90
31575;DHT22;18182;1.328;103.810;2023-05-10T15:23:06;31.00;99.90
31575;DHT22;18182;1.328;103.810;2023-05-10T15:25:32;31.00;99.90
31575;DHT22;18182;1.328;103.810;2023-05-10T15:28:03;31.00;99.90
31575;DHT22;18182;1.328;103.810;2023-05-10T15:30:29;31.00;99.90
31575;DHT22;18182;1.328;103.810;2023-05-10T15:32:56;31.00;99.90
31575;DHT22;18182;1.328;103.810;2023-05-10T15:35:22;31.00;99.90
31575;DHT22;18182;1.328;103.810;2023-05-10T15:37:49;31.00;99.90
31575;DHT22;18182;1.328;103.810;2023-05-10T15:40:15;30.90;99.90
31575;DHT22;18182;1.328;103.810;2023-05-10T15:42:41;30.90;99.90
31575;DHT22;18182;1.328;103.810;2023-05-10T15:45:07;30.90;99.90
31575;DHT22;18182;1.328;103.810;2023-05-10T15:47:34;30.90;99.90
31575;DHT22;18182;1.328;103.810;2023-05-10T15:50:00;30.90;99.90
31575;DHT22;18182;1.328;103.810;2023-05-10T15:52:26;30.90;99.90
31575;DHT22;18182;1.328;103.810;2023-05-10T15:54:52;30.90;99.90